Senshu Maru — JCIR — position and weather

sailwx.info

Track history (hours):
 
Tides and Currents Weather Stations Pressure Air Temp Water Temp Dewpoint Dewpoint Depression Visibility Wind Speed Wind Dir Waves Ship Positions

Oceanographic research ship Senshu Maru (Japan)

Detailed information on ship capabilities available from University of Delaware's Ocean Information Center.

Last reported at 2019-Jun-11 09:15 UTC. Time now 2019-Jun-19 21:41 UTC.
Position N 22°08' E 120°20'.
Warning: this ship's position is 8 days out of date.

Length 283 m; beam 44.8 m.

Type: Ship (hazmat cat A). MMSI: 431023000.

Date/timePositionNaut miles runAvg speedWind from/ knotsBaromVisibWave heightAir tempDewpointWater temp
2019-Jun-11 09:15N 22°08' E 120°20'415.3
2019-Jun-11 09:00N 22°11' E 120°19'714.9
2019-Jun-11 08:30N 22°18' E 120°15'815.2
2019-Jun-11 08:00N 22°25' E 120°13'612.3
2019-Jun-11 07:30N 22°31' E 120°12'510.7
2019-Jun-11 07:00N 22°37' E 120°11'3 6.2
2019-Jun-11 06:29N 22°39' E 120°13'0 0.1
2019-Jun-11 05:59N 22°39' E 120°13'0 0.2
2019-Jun-11 05:26N 22°39' E 120°13'0 0.1
2019-Jun-11 04:59N 22°39' E 120°13'0 0.0
2019-Jun-11 04:29N 22°39' E 120°13'0 0.1
2019-Jun-11 03:59N 22°39' E 120°13'0 0.0
2019-Jun-11 03:30N 22°39' E 120°13'0 0.7
2019-Jun-11 03:00N 22°39' E 120°13'2 3.7
2019-Jun-11 02:30N 22°38' E 120°11'5 9.6
2019-Jun-11 02:00N 22°33' E 120°11'713.1
2019-Jun-11 01:30N 22°27' E 120°14'713.2
2019-Jun-11 01:00N 22°21' E 120°16'611.1
2019-Jun-11 00:30N 22°16' E 120°17'3 6.3
2019-Jun-11 00:00N 22°13' E 120°17'611.8
2019-Jun-10 23:30N 22°07' E 120°18'  
2019-Jun-07 06:56N 33°55' E 134°55'511.9
2019-Jun-07 06:30N 33°60' E 134°57'612.1
2019-Jun-07 05:59N 34°06' E 134°58'612.4
2019-Jun-07 05:30N 34°12' E 134°58'611.8
2019-Jun-07 05:00N 34°18' E 134°59'4 8.0
2019-Jun-07 04:30N 34°22' E 134°60'510.3
2019-Jun-07 04:00N 34°27' E 135°01'612.1
2019-Jun-07 03:30N 34°32' E 135°04'3 6.6
2019-Jun-07 03:00N 34°35' E 135°03'5 9.0
2019-Jun-07 02:30N 34°37' E 134°58'713.2
2019-Jun-07 02:00N 34°34' E 134°51'612.7
2019-Jun-07 01:30N 34°34' E 134°43'611.8
2019-Jun-07 01:00N 34°40' E 134°41'5 9.6
2019-Jun-07 00:30N 34°44' E 134°41'2 2.1
2019-Jun-06 23:45N 34°46' E 134°41'0 0.0
2019-Jun-06 23:30N 34°46' E 134°41'0 0.0
2019-Jun-06 23:00N 34°46' E 134°41'0 0.0
2019-Jun-06 04:14N 34°46' E 134°41'0 0.0
2019-Jun-06 04:00N 34°46' E 134°41'1 1.3
2019-Jun-06 03:30N 34°45' E 134°41'4 7.3
2019-Jun-06 03:00N 34°42' E 134°41'4 8.0
2019-Jun-06 02:30N 34°38' E 134°42'510.2
2019-Jun-06 02:00N 34°33' E 134°45'1015.2
2019-Jun-06 01:22N 34°37' E 134°56'512.7
2019-Jun-06 01:00N 34°37' E 135°02'510.3
2019-Jun-06 00:30N 34°35' E 135°08'3 5.2
2019-Jun-06 00:00N 34°33' E 135°09'510.1
2019-Jun-05 23:30N 34°28' E 135°06'612.3
2019-Jun-05 23:00N 34°23' E 135°03'612.3
2019-Jun-05 22:30N 34°18' E 134°59'611.2
2019-Jun-05 22:00N 34°12' E 134°60'4 9.0
2019-Jun-05 21:30N 34°07' E 135°00'4 7.9
2019-Jun-05 21:00N 34°04' E 134°59'4 8.8
2019-Jun-05 20:30N 33°59' E 134°58'611.7
2019-Jun-05 20:01N 33°54' E 134°58'815.7
2019-Jun-05 19:30N 33°46' E 134°59'915.9
2019-Jun-05 18:58N 33°37' E 135°01'1112.2
2019-Jun-05 18:04N 33°26' E 134°59'  
Track history (hours):
 
Tides and Currents Weather Stations Pressure Air Temp Water Temp Dewpoint Dewpoint Depression Visibility Wind Speed Wind Dir Waves Ship Positions

Oceanographic research ship Senshu Maru (Japan)

Detailed information on ship capabilities available from University of Delaware's Ocean Information Center.

Last reported at 2019-Jun-11 09:15 UTC. Time now 2019-Jun-19 21:41 UTC.
Position N 22°08' E 120°20'.
Warning: this ship's position is 8 days out of date.

Length 283 m; beam 44.8 m.

Type: Ship (hazmat cat A). MMSI: 431023000.

Date/timePositionNaut miles runAvg speedWind from/ knotsBaromVisibWave heightAir tempDewpointWater temp
2019-Jun-11 09:15N 22°08' E 120°20'415.3
2019-Jun-11 09:00N 22°11' E 120°19'714.9
2019-Jun-11 08:30N 22°18' E 120°15'815.2
2019-Jun-11 08:00N 22°25' E 120°13'612.3
2019-Jun-11 07:30N 22°31' E 120°12'510.7
2019-Jun-11 07:00N 22°37' E 120°11'3 6.2
2019-Jun-11 06:29N 22°39' E 120°13'0 0.1
2019-Jun-11 05:59N 22°39' E 120°13'0 0.2
2019-Jun-11 05:26N 22°39' E 120°13'0 0.1
2019-Jun-11 04:59N 22°39' E 120°13'0 0.0
2019-Jun-11 04:29N 22°39' E 120°13'0 0.1
2019-Jun-11 03:59N 22°39' E 120°13'0 0.0
2019-Jun-11 03:30N 22°39' E 120°13'0 0.7
2019-Jun-11 03:00N 22°39' E 120°13'2 3.7
2019-Jun-11 02:30N 22°38' E 120°11'5 9.6
2019-Jun-11 02:00N 22°33' E 120°11'713.1
2019-Jun-11 01:30N 22°27' E 120°14'713.2
2019-Jun-11 01:00N 22°21' E 120°16'611.1
2019-Jun-11 00:30N 22°16' E 120°17'3 6.3
2019-Jun-11 00:00N 22°13' E 120°17'611.8
2019-Jun-10 23:30N 22°07' E 120°18'  
2019-Jun-07 06:56N 33°55' E 134°55'511.9
2019-Jun-07 06:30N 33°60' E 134°57'612.1
2019-Jun-07 05:59N 34°06' E 134°58'612.4
2019-Jun-07 05:30N 34°12' E 134°58'611.8
2019-Jun-07 05:00N 34°18' E 134°59'4 8.0
2019-Jun-07 04:30N 34°22' E 134°60'510.3
2019-Jun-07 04:00N 34°27' E 135°01'612.1
2019-Jun-07 03:30N 34°32' E 135°04'3 6.6
2019-Jun-07 03:00N 34°35' E 135°03'5 9.0
2019-Jun-07 02:30N 34°37' E 134°58'713.2
2019-Jun-07 02:00N 34°34' E 134°51'612.7
2019-Jun-07 01:30N 34°34' E 134°43'611.8
2019-Jun-07 01:00N 34°40' E 134°41'5 9.6
2019-Jun-07 00:30N 34°44' E 134°41'2 2.1
2019-Jun-06 23:45N 34°46' E 134°41'0 0.0
2019-Jun-06 23:30N 34°46' E 134°41'0 0.0
2019-Jun-06 23:00N 34°46' E 134°41'0 0.0
2019-Jun-06 04:14N 34°46' E 134°41'0 0.0
2019-Jun-06 04:00N 34°46' E 134°41'1 1.3
2019-Jun-06 03:30N 34°45' E 134°41'4 7.3
2019-Jun-06 03:00N 34°42' E 134°41'4 8.0
2019-Jun-06 02:30N 34°38' E 134°42'510.2
2019-Jun-06 02:00N 34°33' E 134°45'1015.2
2019-Jun-06 01:22N 34°37' E 134°56'512.7
2019-Jun-06 01:00N 34°37' E 135°02'510.3
2019-Jun-06 00:30N 34°35' E 135°08'3 5.2
2019-Jun-06 00:00N 34°33' E 135°09'510.1
2019-Jun-05 23:30N 34°28' E 135°06'612.3
2019-Jun-05 23:00N 34°23' E 135°03'612.3
2019-Jun-05 22:30N 34°18' E 134°59'611.2
2019-Jun-05 22:00N 34°12' E 134°60'4 9.0
2019-Jun-05 21:30N 34°07' E 135°00'4 7.9
2019-Jun-05 21:00N 34°04' E 134°59'4 8.8
2019-Jun-05 20:30N 33°59' E 134°58'611.7
2019-Jun-05 20:01N 33°54' E 134°58'815.7
2019-Jun-05 19:30N 33°46' E 134°59'915.9
2019-Jun-05 18:58N 33°37' E 135°01'1112.2
2019-Jun-05 18:04N 33°26' E 134°59'  

Dump ship's entire track history